Time;durP1;ratioP1;P1;durP2;ratioP2;P2;SDS_P1;SDS_P2;PMS_P1;PMS_P2;Temp;Humidity;BMP_temperature;BMP_pressure;BME280_temperature;BME280_humidity;BME280_pressure;Samples;Min_cycle;Max_cycle;Signal;HPM_P1;HPM_P2
2021/12/04 00:00:16;;;;;;;7.63;4.97;;;;;;;1.35;97.38;97977.16;5058407;28;20081;-61
2021/12/04 00:02:42;;;;;;;6.53;4.80;;;;;;;1.40;97.87;97970.22;5063586;28;20429;-61
2021/12/04 00:05:08;;;;;;;8.43;5.00;;;;;;;1.36;97.71;97969.03;5062418;28;20027;-61
2021/12/04 00:07:35;;;;;;;8.57;4.47;;;;;;;1.27;98.06;97950.00;5060771;28;20040;-61
2021/12/04 00:10:03;;;;;;;9.82;4.90;;;;;;;1.36;98.57;97944.47;5059744;28;20157;-61
2021/12/04 00:12:31;;;;;;;7.50;3.92;;;;;;;1.33;98.13;97935.13;5062720;28;20155;-61
2021/12/04 00:14:57;;;;;;;8.25;4.45;;;;;;;1.40;98.54;97941.19;5060444;28;20028;-61
2021/12/04 00:17:22;;;;;;;13.48;4.65;;;;;;;1.41;98.71;97932.22;5061238;28;20052;-61
2021/12/04 00:19:48;;;;;;;11.60;4.30;;;;;;;1.38;98.91;97927.38;5063374;28;20036;-65
2021/12/04 00:22:13;;;;;;;8.27;4.30;;;;;;;1.33;99.19;97913.22;5062113;28;20044;-62
2021/12/04 00:24:39;;;;;;;6.53;4.65;;;;;;;1.40;99.42;97909.50;5061655;28;20024;-62
2021/12/04 00:27:04;;;;;;;9.05;4.93;;;;;;;1.31;99.92;97912.63;5061519;28;20498;-61
2021/12/04 00:29:30;;;;;;;7.78;4.20;;;;;;;1.26;100.00;97910.63;5060790;28;20052;-61
2021/12/04 00:32:02;;;;;;;10.60;4.38;;;;;;;1.31;100.00;97897.59;5061517;28;20028;-60
2021/12/04 00:34:29;;;;;;;9.75;4.20;;;;;;;1.38;99.85;97900.97;5062657;28;20039;-60
2021/12/04 00:50:36;;;;;;;9.30;4.38;;;;;;;1.30;100.00;97880.13;5060918;28;20186;-60
2021/12/04 00:53:01;;;;;;;7.22;3.85;;;;;;;1.33;100.00;97879.69;5062699;28;20510;-60
2021/12/04 00:55:27;;;;;;;8.27;4.57;;;;;;;1.35;100.00;97882.94;5060205;28;22169;-61
2021/12/04 00:57:52;;;;;;;6.63;4.50;;;;;;;1.37;100.00;97872.94;5060991;28;20043;-61
2021/12/04 01:00:19;;;;;;;6.18;4.45;;;;;;;1.35;100.00;97871.53;5060528;28;20032;-59
2021/12/04 01:02:47;;;;;;;9.65;4.18;;;;;;;1.39;100.00;97883.31;5061132;28;20063;-59
2021/12/04 01:05:13;;;;;;;7.28;4.32;;;;;;;1.37;100.00;97880.88;5060196;28;20028;-59
2021/12/04 01:07:38;;;;;;;8.60;4.85;;;;;;;1.39;100.00;97876.19;5061070;28;20519;-62
2021/12/04 01:10:05;;;;;;;7.38;4.93;;;;;;;1.36;100.00;97886.38;5061546;28;20111;-60
2021/12/04 01:12:31;;;;;;;10.13;5.20;;;;;;;1.33;100.00;97879.69;5061704;28;20066;-60
2021/12/04 01:14:56;;;;;;;7.90;5.28;;;;;;;1.37;100.00;97874.78;5061165;28;20107;-60
2021/12/04 01:17:22;;;;;;;10.20;5.68;;;;;;;1.33;100.00;97876.25;5061275;28;20545;-59
2021/12/04 01:19:47;;;;;;;11.70;5.88;;;;;;;1.35;100.00;97872.38;5060773;28;20028;-60
2021/12/04 01:22:13;;;;;;;13.18;5.57;;;;;;;1.38;100.00;97877.22;5061187;28;20127;-60
2021/12/04 01:24:38;;;;;;;7.65;5.63;;;;;;;1.41;100.00;97871.50;5060741;28;20020;-60
2021/12/04 01:27:04;;;;;;;7.10;4.47;;;;;;;1.48;99.70;97860.88;5059546;28;20127;-60
2021/12/04 01:29:29;;;;;;;9.13;5.10;;;;;;;1.46;99.88;97863.72;5061685;28;20025;-61
2021/12/04 01:31:55;;;;;;;7.85;5.35;;;;;;;1.43;100.00;97855.44;5061048;28;21595;-61
2021/12/04 01:34:20;;;;;;;7.20;4.90;;;;;;;1.34;100.00;97856.75;5061252;28;20028;-59
2021/12/04 01:36:46;;;;;;;7.18;5.05;;;;;;;1.31;100.00;97847.44;5058380;28;20107;-61
2021/12/04 01:39:12;;;;;;;7.95;4.93;;;;;;;1.38;100.00;97848.19;5060923;28;20115;-61
2021/12/04 01:41:37;;;;;;;8.70;4.88;;;;;;;1.26;100.00;97836.72;5060435;28;20080;-60
2021/12/04 01:44:04;;;;;;;12.70;6.18;;;;;;;1.18;100.00;97829.06;5059611;28;20037;-61
2021/12/04 01:46:29;;;;;;;10.73;5.45;;;;;;;1.12;100.00;97822.00;5060170;28;20635;-60
2021/12/04 01:48:55;;;;;;;9.70;4.60;;;;;;;1.11;100.00;97813.28;5060907;28;20028;-61
2021/12/04 01:51:21;;;;;;;7.72;4.55;;;;;;;1.15;100.00;97808.38;5059244;28;20115;-59
2021/12/04 01:53:46;;;;;;;8.45;4.75;;;;;;;1.17;100.00;97801.84;5059959;28;20036;-59
2021/12/04 01:56:12;;;;;;;9.40;4.40;;;;;;;1.21;100.00;97799.59;5058696;28;20164;-60
2021/12/04 01:58:37;;;;;;;7.07;4.45;;;;;;;1.22;100.00;97799.41;5061629;28;20111;-59
2021/12/04 02:01:03;;;;;;;8.70;5.13;;;;;;;1.17;100.00;97795.78;5059357;28;20059;-59
2021/12/04 02:03:28;;;;;;;6.70;4.43;;;;;;;1.11;100.00;97794.00;5060633;28;20478;-59
2021/12/04 02:05:54;;;;;;;6.95;4.70;;;;;;;1.13;100.00;97794.59;5059827;28;20782;-60
2021/12/04 02:08:21;;;;;;;13.50;5.35;;;;;;;1.15;100.00;97785.44;5060795;28;20028;-59
2021/12/04 02:10:48;;;;;;;8.02;4.60;;;;;;;1.11;100.00;97786.91;5059469;28;20103;-59
2021/12/04 02:13:15;;;;;;;6.43;4.32;;;;;;;1.11;100.00;97780.81;5060622;28;20037;-59
2021/12/04 02:15:40;;;;;;;7.82;4.70;;;;;;;1.16;100.00;97794.16;5059881;28;20044;-59
2021/12/04 02:18:07;;;;;;;11.00;4.72;;;;;;;1.20;100.00;97790.88;5060931;28;20685;-60
2021/12/04 02:20:33;;;;;;;6.95;4.47;;;;;;;1.25;100.00;97792.88;5059491;28;20447;-60
2021/12/04 02:23:00;;;;;;;6.07;4.13;;;;;;;1.28;100.00;97781.88;5060447;28;20029;-60
2021/12/04 02:25:25;;;;;;;8.13;4.50;;;;;;;1.27;100.00;97780.25;5061260;28;20044;-60
2021/12/04 02:27:51;;;;;;;6.43;4.60;;;;;;;1.22;100.00;97773.00;5059948;28;20080;-60
2021/12/04 02:30:19;;;;;;;6.00;4.47;;;;;;;1.27;100.00;97781.06;5045161;28;20099;-60
2021/12/04 02:32:44;;;;;;;8.35;4.93;;;;;;;1.26;100.00;97778.63;5061254;28;20589;-60
2021/12/04 02:35:10;;;;;;;7.47;4.93;;;;;;;1.51;100.00;97776.75;5060186;28;20036;-61
2021/12/04 02:37:36;;;;;;;7.25;4.93;;;;;;;1.32;100.00;97769.03;5059343;28;20127;-60
2021/12/04 02:40:07;;;;;;;10.77;5.25;;;;;;;1.26;100.00;97757.53;5054395;28;20043;-59
2021/12/04 02:42:32;;;;;;;8.30;5.78;;;;;;;1.24;100.00;97756.94;5061596;28;20777;-59
2021/12/04 02:44:59;;;;;;;7.57;4.97;;;;;;;1.27;100.00;97757.31;5060834;28;20406;-59
2021/12/04 02:47:26;;;;;;;8.30;5.38;;;;;;;1.29;100.00;97759.72;5060305;28;20083;-59
2021/12/04 02:49:52;;;;;;;9.27;5.20;;;;;;;1.32;100.00;97761.91;5061137;28;20029;-59
2021/12/04 02:52:18;;;;;;;8.23;4.88;;;;;;;1.42;100.00;97754.31;5060628;28;20474;-59
2021/12/04 02:54:43;;;;;;;7.88;5.00;;;;;;;1.38;100.00;97754.97;5060832;28;20035;-59
2021/12/04 02:57:11;;;;;;;9.10;5.15;;;;;;;1.37;100.00;97748.88;5059346;28;20040;-59
2021/12/04 02:59:38;;;;;;;8.05;5.30;;;;;;;1.35;100.00;97748.31;5061714;28;20167;-59
2021/12/04 03:02:05;;;;;;;8.05;5.22;;;;;;;1.35;100.00;97744.81;5060620;28;20473;-59
2021/12/04 03:04:31;;;;;;;6.07;4.70;;;;;;;1.32;100.00;97724.97;5060663;28;20048;-59
2021/12/04 03:06:56;;;;;;;7.63;4.72;;;;;;;1.25;100.00;97724.25;5058999;28;20379;-59
2021/12/04 03:09:22;;;;;;;5.97;4.38;;;;;;;1.27;100.00;97722.16;5058722;28;20037;-59
2021/12/04 03:11:47;;;;;;;7.38;4.50;;;;;;;1.21;100.00;97717.78;5058664;28;20089;-59
2021/12/04 03:14:13;;;;;;;8.52;4.75;;;;;;;1.22;100.00;97704.38;5060671;28;20098;-59
2021/12/04 03:16:40;;;;;;;7.72;4.97;;;;;;;1.27;100.00;97716.88;5060130;28;20560;-59
2021/12/04 03:19:05;;;;;;;6.22;4.40;;;;;;;1.31;100.00;97715.44;5060738;28;20028;-59
2021/12/04 03:21:32;;;;;;;6.45;4.22;;;;;;;1.29;100.00;97714.84;5057350;28;20142;-59
2021/12/04 03:24:04;;;;;;;5.57;4.03;;;;;;;1.27;100.00;97712.44;5062815;28;20028;-59
2021/12/04 03:26:30;;;;;;;5.85;4.07;;;;;;;1.29;100.00;97706.94;5064260;28;20052;-59
2021/12/04 03:28:57;;;;;;;6.43;3.97;;;;;;;1.23;100.00;97705.97;5064728;28;20028;-59
2021/12/04 03:42:04;;;;;;;5.50;3.97;;;;;;;1.43;100.00;97711.03;5064494;28;20163;-60
2021/12/04 03:44:31;;;;;;;6.93;4.05;;;;;;;1.46;100.00;97710.59;5063788;28;20043;-59
2021/12/04 03:46:58;;;;;;;6.18;4.00;;;;;;;1.47;100.00;97704.31;5062911;28;20052;-59
2021/12/04 03:49:23;;;;;;;7.00;4.60;;;;;;;1.48;100.00;97702.47;5061853;28;20028;-61
2021/12/04 03:51:49;;;;;;;7.15;4.18;;;;;;;1.31;100.00;97681.13;5063334;28;20378;-59
2021/12/04 03:54:14;;;;;;;5.35;3.70;;;;;;;1.29;100.00;97688.44;5064006;28;20040;-59
2021/12/04 03:56:40;;;;;;;7.10;3.85;;;;;;;1.23;100.00;97687.50;5064075;28;20113;-60
2021/12/04 03:59:05;;;;;;;5.72;3.45;;;;;;;1.20;100.00;97674.75;5064135;28;20395;-59
2021/12/04 04:01:31;;;;;;;4.32;2.85;;;;;;;1.25;100.00;97656.41;5063584;28;20040;-60
2021/12/04 04:03:56;;;;;;;5.45;3.83;;;;;;;1.15;100.00;97640.31;5063813;28;20111;-59
2021/12/04 04:06:22;;;;;;;5.68;3.50;;;;;;;1.19;100.00;97648.56;5062693;28;20052;-59
2021/12/04 04:08:47;;;;;;;6.10;4.32;;;;;;;1.18;100.00;97662.81;5064323;28;20028;-59
2021/12/04 04:11:13;;;;;;;6.60;3.78;;;;;;;1.23;100.00;97652.38;5063216;28;20048;-62
2021/12/04 04:13:42;;;;;;;5.00;3.35;;;;;;;1.17;100.00;97642.69;5058415;28;20028;-59
2021/12/04 04:16:08;;;;;;;5.97;3.90;;;;;;;1.21;100.00;97643.88;5061380;28;20491;-60
2021/12/04 04:18:34;;;;;;;5.32;3.70;;;;;;;1.24;100.00;97640.78;5062411;28;20043;-60
2021/12/04 04:20:59;;;;;;;4.63;3.47;;;;;;;1.25;100.00;97640.59;5060732;28;20127;-64
2021/12/04 04:23:25;;;;;;;4.97;3.42;;;;;;;1.12;100.00;97635.44;5061522;28;20024;-59
2021/12/04 04:25:51;;;;;;;4.72;3.33;;;;;;;1.16;100.00;97641.09;5061708;28;20502;-59
2021/12/04 04:28:16;;;;;;;4.18;3.00;;;;;;;1.20;100.00;97634.34;5064193;28;20597;-59
2021/12/04 04:30:42;;;;;;;4.60;2.95;;;;;;;1.15;100.00;97623.63;5063245;28;20159;-59
2021/12/04 04:33:11;;;;;;;5.43;3.55;;;;;;;1.13;100.00;97628.34;5061471;28;20190;-60
2021/12/04 04:35:36;;;;;;;4.85;3.30;;;;;;;1.08;100.00;97613.97;5062326;28;20051;-60
2021/12/04 04:38:12;;;;;;;4.03;2.83;;;;;;;1.13;100.00;97615.97;5057263;28;20028;-59
2021/12/04 05:00:01;;;;;;;3.72;2.75;;;;;;;1.27;100.00;97600.75;5058149;28;20035;-60
2021/12/04 05:10:02;;;;;;;4.13;2.60;;;;;;;1.20;100.00;97589.47;5057849;28;20058;-60
2021/12/04 05:11:08;;;;;;;3.85;2.60;;;;;;;1.19;100.00;97593.16;5057536;28;20572;-60
2021/12/04 05:13:34;;;;;;;3.53;2.40;;;;;;;1.16;100.00;97594.41;5062859;28;20039;-60
2021/12/04 05:16:10;;;;;;;4.20;2.42;;;;;;;1.16;100.00;97593.59;5062425;28;20028;-60
2021/12/04 05:18:38;;;;;;;3.28;2.15;;;;;;;1.13;100.00;97591.41;5062617;28;20036;-60
2021/12/04 05:21:05;;;;;;;3.53;2.40;;;;;;;1.15;100.00;97586.69;5059603;28;20490;-60
2021/12/04 05:23:48;;;;;;;3.45;2.35;;;;;;;1.18;100.00;97586.28;5056492;28;20103;-60
2021/12/04 05:26:24;;;;;;;3.90;2.25;;;;;;;1.22;100.00;97587.41;5061931;28;20225;-60
2021/12/04 05:28:49;;;;;;;3.53;2.60;;;;;;;1.16;100.00;97591.75;5061974;28;20485;-60
2021/12/04 05:31:15;;;;;;;3.63;2.60;;;;;;;1.15;100.00;97586.69;5049414;28;20052;-60
2021/12/04 05:33:41;;;;;;;4.90;2.55;;;;;;;1.15;100.00;97589.31;5041289;28;20108;-61
2021/12/04 05:36:07;;;;;;;3.85;2.38;;;;;;;1.17;100.00;97589.91;5040093;28;20076;-60
2021/12/04 05:38:33;;;;;;;4.07;2.58;;;;;;;1.17;100.00;97580.16;5041364;28;20043;-60
2021/12/04 05:40:59;;;;;;;3.03;2.35;;;;;;;1.23;100.00;97587.22;5038561;28;20152;-61
2021/12/04 05:43:25;;;;;;;3.30;2.20;;;;;;;1.20;100.00;97579.75;5042348;28;20049;-60
2021/12/04 05:46:09;;;;;;;3.28;2.55;;;;;;;1.18;100.00;97578.34;5040595;28;20509;-60
2021/12/04 05:52:02;;;;;;;3.15;2.30;;;;;;;1.15;100.00;97568.22;5039094;28;20124;-61
2021/12/04 05:56:17;;;;;;;2.90;2.28;;;;;;;1.36;100.00;97566.94;5037520;28;20052;-61
2021/12/04 05:58:43;;;;;;;3.45;2.53;;;;;;;1.22;100.00;97568.94;5042012;28;20179;-61
2021/12/04 06:01:09;;;;;;;2.90;2.30;;;;;;;1.10;100.00;97568.91;5040084;28;20128;-60
2021/12/04 06:03:34;;;;;;;3.22;2.17;;;;;;;1.13;100.00;97557.09;5040597;28;20028;-59
2021/12/04 06:06:00;;;;;;;2.78;1.98;;;;;;;1.21;100.00;97565.50;5040676;28;20465;-59
2021/12/04 06:08:26;;;;;;;4.10;2.38;;;;;;;1.18;100.00;97554.59;5041589;28;20063;-61
2021/12/04 06:10:52;;;;;;;2.80;2.15;;;;;;;1.18;100.00;97559.88;5046371;28;20048;-60
2021/12/04 06:13:17;;;;;;;2.97;2.30;;;;;;;1.19;100.00;97561.47;5059349;28;20107;-60
2021/12/04 06:15:43;;;;;;;3.13;2.10;;;;;;;1.21;100.00;97572.63;5055354;28;20450;-60
2021/12/04 06:18:08;;;;;;;2.95;2.10;;;;;;;1.33;100.00;97577.97;5041447;28;20029;-60
2021/12/04 06:23:21;;;;;;;5.53;2.30;;;;;;;1.26;100.00;97584.13;5041290;28;20494;-60
2021/12/04 06:25:47;;;;;;;4.65;3.17;;;;;;;1.16;100.00;97580.41;5041035;28;20037;-60
2021/12/04 06:28:13;;;;;;;5.57;3.63;;;;;;;1.25;100.00;97581.72;5041163;28;20064;-60
2021/12/04 06:30:41;;;;;;;8.30;4.22;;;;;;;1.32;100.00;97569.22;5039418;28;20072;-60
2021/12/04 06:33:07;;;;;;;8.55;4.28;;;;;;;1.35;100.00;97571.44;5038533;28;20037;-60
2021/12/04 06:35:33;;;;;;;8.43;4.82;;;;;;;1.34;100.00;97571.66;5036902;28;20053;-60
2021/12/04 06:37:59;;;;;;;8.55;4.63;;;;;;;1.32;100.00;97571.06;5038465;28;20538;-60
2021/12/04 06:40:28;;;;;;;12.82;8.00;;;;;;;1.30;100.00;97571.28;5026013;28;20311;-60
2021/12/04 06:42:57;;;;;;;8.93;5.50;;;;;;;1.29;100.00;97565.19;5038226;28;20068;-60
2021/12/04 06:45:23;;;;;;;19.88;12.60;;;;;;;1.32;100.00;97558.66;5033412;28;20045;-60
2021/12/04 06:47:55;;;;;;;9.23;6.10;;;;;;;1.33;100.00;97556.84;5037950;28;20517;-60
2021/12/04 06:53:05;;;;;;;13.38;7.63;;;;;;;1.29;100.00;97556.47;5037880;28;20033;-60
2021/12/04 06:55:38;;;;;;;12.85;7.47;;;;;;;1.42;100.00;97558.13;5034062;28;20373;-60
2021/12/04 06:58:03;;;;;;;11.50;6.40;;;;;;;1.33;100.00;97552.38;5033308;28;20028;-60
2021/12/04 07:00:30;;;;;;;11.13;6.78;;;;;;;1.37;100.00;97553.50;5042177;28;20041;-60
2021/12/04 07:02:56;;;;;;;12.20;6.03;;;;;;;1.36;100.00;97540.56;5040472;28;20040;-60
2021/12/04 07:05:21;;;;;;;8.18;5.78;;;;;;;1.37;100.00;97542.94;5040664;28;20049;-60
2021/12/04 07:07:47;;;;;;;8.00;5.30;;;;;;;1.40;100.00;97545.16;5042285;28;20463;-60
2021/12/04 07:10:13;;;;;;;8.07;5.70;;;;;;;1.36;100.00;97546.63;5040769;28;20033;-60
2021/12/04 07:12:38;;;;;;;9.43;4.70;;;;;;;1.53;100.00;97551.28;5042657;28;20139;-61
2021/12/04 07:15:04;;;;;;;6.97;5.00;;;;;;;1.55;100.00;97542.09;5042381;28;20084;-61
2021/12/04 07:17:30;;;;;;;7.50;5.38;;;;;;;1.62;100.00;97542.00;5042287;28;20074;-60
2021/12/04 07:19:55;;;;;;;7.05;5.13;;;;;;;1.58;100.00;97548.78;5042274;28;20386;-61
2021/12/04 07:22:21;;;;;;;8.35;4.10;;;;;;;1.59;100.00;97531.88;5042842;28;20049;-60
2021/12/04 07:24:46;;;;;;;7.30;4.55;;;;;;;1.73;100.00;97522.75;5043062;28;20437;-61
2021/12/04 07:27:13;;;;;;;13.77;9.85;;;;;;;1.80;100.00;97519.97;5054767;28;20061;-61
2021/12/04 07:29:38;;;;;;;6.40;4.32;;;;;;;1.67;99.25;97523.63;5042217;28;20067;-61
2021/12/04 07:32:04;;;;;;;5.07;3.20;;;;;;;1.53;98.87;97525.69;5040886;28;20040;-61
2021/12/04 07:34:30;;;;;;;7.90;4.18;;;;;;;1.72;99.49;97526.41;5043646;28;20063;-61
2021/12/04 07:36:55;;;;;;;3.85;2.30;;;;;;;1.68;98.57;97522.63;5043565;28;20386;-61
2021/12/04 07:39:21;;;;;;;4.88;2.75;;;;;;;1.77;99.02;97521.22;5044436;28;20697;-61
2021/12/04 07:41:46;;;;;;;4.68;2.60;;;;;;;1.70;98.38;97524.00;5043616;28;20102;-61
2021/12/04 07:44:12;;;;;;;4.40;2.88;;;;;;;1.68;97.75;97533.97;5041879;28;20039;-61
2021/12/04 07:46:39;;;;;;;7.25;4.65;;;;;;;1.64;98.77;97537.28;5043649;28;20068;-60
2021/12/04 07:49:05;;;;;;;16.25;9.63;;;;;;;1.65;99.08;97539.72;5044870;28;20055;-60
2021/12/04 07:51:30;;;;;;;12.73;7.65;;;;;;;1.62;99.03;97544.63;5040722;28;20453;-60
2021/12/04 07:53:56;;;;;;;5.70;3.42;;;;;;;1.66;98.92;97540.53;5042136;28;20056;-60
2021/12/04 07:56:21;;;;;;;5.65;3.22;;;;;;;1.60;98.63;97530.84;5043525;28;20037;-60
2021/12/04 07:58:47;;;;;;;3.25;2.20;;;;;;;1.56;98.40;97527.88;5043985;28;20426;-60
2021/12/04 08:01:12;;;;;;;5.03;2.55;;;;;;;1.53;99.35;97544.16;5052707;28;20520;-60
2021/12/04 08:03:38;;;;;;;3.90;2.40;;;;;;;1.63;99.57;97546.25;5063232;28;20508;-61
2021/12/04 08:06:03;;;;;;;3.55;2.38;;;;;;;1.61;99.19;97543.03;5062846;28;20039;-61
2021/12/04 08:08:29;;;;;;;4.30;2.40;;;;;;;1.63;99.61;97541.78;5046616;28;20450;-60
2021/12/04 08:10:55;;;;;;;3.40;2.25;;;;;;;1.66;99.45;97536.03;5062240;28;20105;-60
2021/12/04 08:13:20;;;;;;;4.63;2.70;;;;;;;1.75;99.54;97528.59;5073382;28;20276;-60
2021/12/04 08:15:46;;;;;;;6.45;2.95;;;;;;;1.80;99.41;97519.97;5061602;28;20040;-60
2021/12/04 08:18:11;;;;;;;7.53;4.47;;;;;;;1.90;99.62;97526.31;5061416;28;20025;-60
2021/12/04 08:20:37;;;;;;;8.15;4.65;;;;;;;1.78;99.07;97522.06;5060921;28;20044;-60
2021/12/04 08:23:04;;;;;;;6.57;3.65;;;;;;;1.80;99.36;97530.53;5061272;28;20579;-60
2021/12/04 08:25:31;;;;;;;9.23;4.82;;;;;;;1.89;99.95;97523.91;5061556;28;20443;-60
2021/12/04 08:53:15;;;;;;;8.35;7.43;;;;;;;2.46;98.68;97515.41;5067012;27;20399;-60
2021/12/04 08:55:42;;;;;;;5.82;4.40;;;;;;;2.41;98.43;97513.44;5047507;28;20056;-60
2021/12/04 08:58:08;;;;;;;4.97;3.10;;;;;;;2.29;98.49;97513.44;5048027;28;20036;-60
2021/12/04 09:00:46;;;;;;;4.63;2.72;;;;;;;2.34;98.30;97518.84;5041873;28;20068;-61
2021/12/04 09:03:12;;;;;;;30.13;15.05;;;;;;;2.40;98.59;97511.03;5039836;28;20029;-61
2021/12/04 09:05:37;;;;;;;16.35;8.65;;;;;;;2.47;97.90;97519.66;5038547;28;20041;-60
2021/12/04 09:08:04;;;;;;;8.43;4.20;;;;;;;2.42;97.63;97516.91;5039164;28;20033;-60
2021/12/04 09:10:30;;;;;;;7.88;4.28;;;;;;;2.40;97.24;97526.88;5042818;28;20513;-60
2021/12/04 09:12:55;;;;;;;5.43;2.63;;;;;;;2.37;97.84;97530.81;5039889;28;20037;-59
2021/12/04 09:15:24;;;;;;;2.90;2.13;;;;;;;2.32;97.20;97523.59;5070721;28;20049;-60
2021/12/04 09:17:49;;;;;;;16.08;3.92;;;;;;;3.86;95.65;97534.44;5044737;28;20144;-59
2021/12/04 09:20:16;;;;;;;3.17;2.10;;;;;;;3.03;93.48;97524.25;5038176;28;20029;-59
2021/12/04 09:22:43;;;;;;;2.83;2.03;;;;;;;2.63;94.12;97526.88;5041022;28;20103;-60
2021/12/04 09:25:13;;;;;;;3.28;2.50;;;;;;;2.51;95.94;97521.59;5040976;28;20477;-59
2021/12/04 09:28:07;;;;;;;5.38;2.65;;;;;;;2.52;96.59;97525.03;5048627;28;20475;-61
2021/12/04 09:59:25;;;;;;;5.90;3.13;;;;;;;2.88;96.86;97510.72;5047062;28;20402;-60
2021/12/04 10:45:03;;;;;;;4.95;2.67;;;;;;;3.23;96.83;97380.84;5044109;28;20624;-60
2021/12/04 10:47:29;;;;;;;6.45;2.78;;;;;;;3.31;95.88;97377.00;5015528;28;20044;-60
2021/12/04 10:53:05;;;;;;;5.00;2.78;;;;;;;3.16;95.46;97361.66;5005589;28;20057;-60
2021/12/04 11:22:27;;;;;;;11.45;7.25;;;;;;;3.21;99.95;97319.38;4997968;28;20049;-60
2021/12/04 11:44:02;;;;;;;12.77;5.65;;;;;;;3.09;100.00;97278.97;5006665;28;20057;-60
2021/12/04 11:46:42;;;;;;;6.97;4.35;;;;;;;2.71;98.93;97271.75;4984460;28;20061;-60
2021/12/04 11:49:15;;;;;;;6.95;4.35;;;;;;;2.69;99.10;97273.84;4998501;28;20400;-59
2021/12/04 11:51:57;;;;;;;7.10;4.88;;;;;;;2.80;99.07;97265.03;4984860;28;20069;-60
2021/12/04 11:54:25;;;;;;;7.57;4.72;;;;;;;2.63;99.62;97264.22;4999804;28;20500;-60
2021/12/04 11:57:07;;;;;;;8.32;5.40;;;;;;;2.71;99.77;97261.19;4976372;28;20581;-60
2021/12/04 11:59:34;;;;;;;8.05;5.28;;;;;;;2.75;99.50;97260.47;4999012;28;20030;-60
2021/12/04 12:02:01;;;;;;;6.80;4.85;;;;;;;2.65;99.63;97249.72;4991397;28;20790;-60
2021/12/04 12:04:33;;;;;;;9.48;4.93;;;;;;;2.91;99.40;97260.69;4995148;28;20053;-60
2021/12/04 12:07:30;;;;;;;9.05;4.75;;;;;;;3.06;98.58;97250.34;4985021;28;20042;-60
2021/12/04 12:10:05;;;;;;;9.60;4.97;;;;;;;3.18;98.37;97239.66;4989316;28;20087;-60
2021/12/04 12:12:39;;;;;;;7.63;4.95;;;;;;;3.20;98.26;97243.66;4992903;28;20742;-60
2021/12/04 12:15:33;;;;;;;8.25;5.00;;;;;;;3.06;98.60;97237.09;4989724;28;20277;-61
2021/12/04 12:18:12;;;;;;;10.57;5.10;;;;;;;3.05;99.35;97230.22;4998078;28;20030;-60
2021/12/04 12:21:04;;;;;;;15.68;6.45;;;;;;;2.95;100.00;97216.84;4992862;28;20050;-60
2021/12/04 12:23:30;;;;;;;7.80;5.25;;;;;;;2.87;100.00;97206.66;5013570;28;20172;-60
2021/12/04 12:37:25;;;;;;;9.63;5.32;;;;;;;2.72;100.00;97168.34;4987981;28;20050;-60
2021/12/04 12:39:56;;;;;;;12.20;4.93;;;;;;;2.83;100.00;97164.00;4983151;28;20438;-60
2021/12/04 12:42:27;;;;;;;10.43;5.00;;;;;;;2.95;100.00;97151.47;4992319;28;20069;-60
2021/12/04 12:44:52;;;;;;;18.63;5.68;;;;;;;2.96;99.65;97161.00;4995781;28;20546;-61
2021/12/04 12:47:18;;;;;;;14.55;6.70;;;;;;;2.98;99.60;97150.19;4986574;28;20051;-60
2021/12/04 12:49:45;;;;;;;16.67;8.80;;;;;;;3.12;100.00;97166.50;4992314;28;20030;-60
2021/12/04 12:52:19;;;;;;;8.43;4.90;;;;;;;2.93;99.06;97160.72;4990813;28;20510;-60
2021/12/04 12:55:05;;;;;;;7.20;4.95;;;;;;;2.80;99.66;97167.16;4990935;28;20038;-60
2021/12/04 12:57:40;;;;;;;7.28;4.95;;;;;;;2.83;99.56;97169.28;4982998;28;20054;-60
2021/12/04 13:13:54;;;;;;;24.63;8.25;;;;;;;2.81;100.00;97137.78;4984819;28;20085;-60
2021/12/04 13:16:29;;;;;;;9.07;6.15;;;;;;;2.71;100.00;97148.22;4983196;28;20133;-60
2021/12/04 13:18:58;;;;;;;9.45;6.00;;;;;;;2.57;100.00;97112.56;4984762;28;20520;-60
2021/12/04 13:21:24;;;;;;;12.35;6.72;;;;;;;2.59;100.00;97081.38;4989133;28;20568;-61
2021/12/04 13:23:51;;;;;;;17.40;8.27;;;;;;;2.63;100.00;97079.88;4984183;28;20114;-61
2021/12/04 13:26:16;;;;;;;14.85;7.40;;;;;;;2.73;100.00;97095.09;4987220;28;20141;-61
2021/12/04 13:28:44;;;;;;;11.43;6.53;;;;;;;2.87;100.00;97106.94;4986042;28;20026;-61
2021/12/04 13:31:09;;;;;;;10.45;6.03;;;;;;;2.78;100.00;97109.16;5000330;28;20038;-61
2021/12/04 13:33:37;;;;;;;11.77;6.93;;;;;;;2.97;100.00;97108.88;5002753;28;20026;-61
2021/12/04 13:36:10;;;;;;;8.52;5.65;;;;;;;2.93;100.00;97102.50;4994957;28;20076;-61
2021/12/04 13:38:36;;;;;;;10.07;6.20;;;;;;;3.06;100.00;97099.47;4991976;28;20535;-62
2021/12/04 13:41:01;;;;;;;13.85;7.20;;;;;;;3.07;100.00;97106.38;4988472;28;21706;-59
2021/12/04 13:43:27;;;;;;;21.83;7.75;;;;;;;3.08;100.00;97105.31;4983944;28;20046;-61
2021/12/04 13:46:00;;;;;;;17.23;6.45;;;;;;;3.04;100.00;97101.56;4989960;28;20042;-61
2021/12/04 13:48:26;;;;;;;15.90;6.63;;;;;;;2.84;100.00;97096.00;4983373;28;20457;-61
2021/12/04 13:50:52;;;;;;;43.97;9.18;;;;;;;3.06;100.00;97103.97;4997166;28;20081;-61
2021/12/04 13:53:39;;;;;;;10.68;5.47;;;;;;;3.10;100.00;97105.88;4991360;28;20110;-60
2021/12/04 13:56:10;;;;;;;18.70;6.65;;;;;;;3.39;100.00;97093.22;4985051;28;20554;-60
2021/12/04 13:58:54;;;;;;;19.90;7.65;;;;;;;3.26;99.63;97100.78;4987558;28;20859;-61
2021/12/04 14:01:20;;;;;;;13.20;6.13;;;;;;;3.23;99.72;97094.91;4983675;28;20038;-61
2021/12/04 14:03:47;;;;;;;10.23;5.97;;;;;;;3.26;99.98;97103.41;4983900;28;20490;-61
2021/12/04 14:06:17;;;;;;;9.23;5.32;;;;;;;3.18;99.76;97091.41;4994605;28;20132;-61
2021/12/04 14:08:43;;;;;;;12.40;6.57;;;;;;;3.31;100.00;97088.38;4983469;28;20339;-61
2021/12/04 14:11:09;;;;;;;15.68;6.75;;;;;;;3.21;100.00;97090.91;4977617;28;20508;-61
2021/12/04 14:13:36;;;;;;;31.67;8.77;;;;;;;3.23;100.00;97083.53;4993869;28;20029;-61
2021/12/04 14:16:02;;;;;;;16.02;6.40;;;;;;;3.07;100.00;97090.50;4999329;28;20046;-61
2021/12/04 14:18:29;;;;;;;13.07;6.88;;;;;;;3.11;100.00;97096.88;4984522;28;20404;-60
2021/12/04 14:21:00;;;;;;;10.07;5.60;;;;;;;3.23;100.00;97097.56;4982494;28;20507;-61
2021/12/04 14:23:26;;;;;;;;;;;;;;;3.42;100.00;97094.59;4984668;28;20038;-61
2021/12/04 14:25:54;;;;;;;12.98;6.30;;;;;;;3.40;100.00;97100.16;4983297;28;20403;-61
2021/12/04 14:28:26;;;;;;;15.32;6.88;;;;;;;3.35;100.00;97096.66;4993430;28;20030;-61
2021/12/04 14:30:52;;;;;;;13.82;6.45;;;;;;;3.39;100.00;97109.13;4997578;28;20404;-61
2021/12/04 14:33:20;;;;;;;18.45;8.30;;;;;;;3.42;100.00;97106.00;4988292;28;20139;-60
2021/12/04 14:35:46;;;;;;;15.20;7.32;;;;;;;3.20;100.00;97119.25;4983051;28;20070;-61
2021/12/04 14:38:14;;;;;;;12.90;8.00;;;;;;;3.34;100.00;97113.56;4983414;28;20113;-61
2021/12/04 14:40:51;;;;;;;13.88;8.00;;;;;;;3.31;100.00;97119.38;4983029;28;20042;-61
2021/12/04 14:43:21;;;;;;;13.02;8.73;;;;;;;3.28;100.00;97120.66;4991288;28;20084;-61
2021/12/04 14:45:49;;;;;;;17.40;11.48;;;;;;;3.18;100.00;97110.75;4998344;28;20165;-62
2021/12/04 14:48:24;;;;;;;16.88;8.77;;;;;;;3.00;100.00;97116.34;4991885;28;20025;-61
2021/12/04 14:50:52;;;;;;;15.18;8.60;;;;;;;3.11;100.00;97112.75;4982649;28;20039;-61
2021/12/04 14:53:18;;;;;;;23.13;14.80;;;;;;;3.14;100.00;97120.22;5002493;28;20040;-60
2021/12/04 14:55:46;;;;;;;11.75;6.40;;;;;;;3.20;100.00;97121.09;4989451;28;20751;-60
2021/12/04 14:58:15;;;;;;;20.33;16.58;;;;;;;3.17;100.00;97117.09;4999517;28;20056;-59
2021/12/04 15:00:42;;;;;;;15.80;10.10;;;;;;;3.25;100.00;97129.09;4984726;28;20054;-60
2021/12/04 15:03:13;;;;;;;19.50;11.25;;;;;;;3.28;100.00;97138.41;4984469;28;20555;-60
2021/12/04 15:05:44;;;;;;;13.10;8.88;;;;;;;3.24;100.00;97149.47;4987985;28;20051;-60
2021/12/04 15:08:13;;;;;;;14.60;9.57;;;;;;;3.31;100.00;97148.47;4987909;28;20038;-60
2021/12/04 15:10:39;;;;;;;9.38;6.75;;;;;;;3.16;100.00;97143.81;4985665;28;20175;-60
2021/12/04 15:13:06;;;;;;;13.43;7.60;;;;;;;3.23;100.00;97147.88;4983011;28;20415;-60
2021/12/04 15:15:34;;;;;;;14.63;9.77;;;;;;;3.13;100.00;97155.69;4982437;28;20069;-60
2021/12/04 15:18:02;;;;;;;30.02;14.77;;;;;;;3.18;100.00;97163.69;4983202;28;20519;-60
2021/12/04 15:20:32;;;;;;;39.33;20.40;;;;;;;3.24;100.00;97175.13;4990224;28;20077;-60
2021/12/04 15:22:59;;;;;;;40.17;22.73;;;;;;;3.28;100.00;97180.75;4998187;28;20088;-60
2021/12/04 15:25:30;;;;;;;42.00;26.02;;;;;;;3.30;100.00;97183.97;4996211;28;20050;-60
2021/12/04 15:27:56;;;;;;;24.05;14.80;;;;;;;3.21;100.00;97191.50;4987523;28;20499;-60